Time;durP1;ratioP1;P1;durP2;ratioP2;P2;SDS_P1;SDS_P2;PMS_P1;PMS_P2;Temp;Humidity;BMP_temperature;BMP_pressure;BME280_temperature;BME280_humidity;BME280_pressure;Samples;Min_cycle;Max_cycle;Signal;HPM_P1;HPM_P2
2021/04/27 00:02:18;;;;;;;5.00;2.30;;;5.60;1.00;;;;;;5071256;28;20172;-56
2021/04/27 00:04:44;;;;;;;3.23;1.50;;;5.60;1.00;;;;;;5071978;28;20768;-57
2021/04/27 00:07:10;;;;;;;2.40;1.80;;;5.60;1.00;;;;;;5067086;28;20190;-56
2021/04/27 00:09:36;;;;;;;1.60;1.50;;;5.50;1.00;;;;;;5070939;28;20453;-57
2021/04/27 00:12:03;;;;;;;2.23;1.60;;;5.60;1.00;;;;;;5060801;28;20460;-56
2021/04/27 00:14:29;;;;;;;2.63;2.17;;;5.60;1.00;;;;;;5070708;28;20195;-57
2021/04/27 00:16:55;;;;;;;2.40;1.63;;;5.70;1.00;;;;;;5069801;28;20436;-57
2021/04/27 00:19:20;;;;;;;2.50;1.80;;;5.60;1.00;;;;;;5070443;28;20720;-56
2021/04/27 00:21:46;;;;;;;2.40;1.97;;;5.60;1.00;;;;;;5069317;28;20199;-57
2021/04/27 00:24:11;;;;;;;2.70;1.13;;;5.60;1.00;;;;;;5068802;28;20191;-56
2021/04/27 00:26:37;;;;;;;3.33;1.50;;;5.60;1.00;;;;;;5070760;28;20187;-56
2021/04/27 00:29:04;;;;;;;2.20;1.60;;;5.50;1.00;;;;;;5069702;28;20235;-56
2021/04/27 00:31:31;;;;;;;2.00;1.77;;;5.40;1.00;;;;;;5070559;28;20541;-56
2021/04/27 00:33:56;;;;;;;1.93;1.67;;;5.40;1.00;;;;;;5070128;28;20959;-57
2021/04/27 00:36:22;;;;;;;2.90;1.80;;;5.50;1.00;;;;;;5071474;28;20426;-55
2021/04/27 00:38:49;;;;;;;5.00;2.00;;;5.40;1.00;;;;;;5069828;28;20240;-57
2021/04/27 00:41:14;;;;;;;4.30;2.50;;;5.40;1.00;;;;;;5067801;28;20499;-56
2021/04/27 00:43:40;;;;;;;3.27;1.97;;;5.40;1.00;;;;;;5066845;28;20445;-55
2021/04/27 00:46:07;;;;;;;3.63;2.63;;;5.30;1.00;;;;;;5070867;28;20176;-56
2021/04/27 00:48:32;;;;;;;2.63;1.90;;;5.20;1.00;;;;;;5070533;28;20449;-55
2021/04/27 00:50:59;;;;;;;3.43;2.20;;;5.20;1.00;;;;;;5065386;28;20499;-57
2021/04/27 00:53:26;;;;;;;4.63;2.20;;;5.20;1.00;;;;;;5069845;28;20283;-57
2021/04/27 00:55:51;;;;;;;5.53;2.10;;;5.20;1.00;;;;;;5069411;28;20509;-55
2021/04/27 00:58:17;;;;;;;4.60;2.10;;;5.20;1.00;;;;;;5069833;28;20500;-57
2021/04/27 01:00:43;;;;;;;4.63;2.27;;;5.30;1.00;;;;;;5069293;28;20645;-57
2021/04/27 01:03:09;;;;;;;4.13;2.00;;;5.10;1.00;;;;;;5067810;28;20199;-55
2021/04/27 01:05:38;;;;;;;4.30;1.67;;;5.10;1.00;;;;;;5069941;28;20442;-55
2021/04/27 01:08:25;;;;;;;3.67;2.10;;;5.10;1.00;;;;;;5070435;28;20180;-56
2021/04/27 01:11:15;;;;;;;1.87;1.77;;;5.10;1.00;;;;;;5068772;28;20473;-57
2021/04/27 01:14:06;;;;;;;2.57;1.83;;;5.00;1.00;;;;;;5065664;28;20503;-56
2021/04/27 01:16:33;;;;;;;3.83;1.80;;;4.90;1.00;;;;;;5068267;28;20907;-57
2021/04/27 01:18:58;;;;;;;2.40;1.90;;;4.90;1.00;;;;;;5063801;28;20480;-56
2021/04/27 01:21:27;;;;;;;3.13;2.43;;;4.90;1.00;;;;;;5067595;28;20760;-56
2021/04/27 01:24:33;;;;;;;3.70;2.00;;;4.90;1.00;;;;;;5062489;28;20786;-56
2021/04/27 01:27:02;;;;;;;5.80;2.20;;;4.90;1.00;;;;;;5068162;28;20465;-57
2021/04/27 01:29:29;;;;;;;2.43;2.00;;;4.90;1.00;;;;;;5067827;28;20553;-56
2021/04/27 01:32:01;;;;;;;3.10;2.40;;;4.90;1.00;;;;;;5067865;28;20441;-56
2021/04/27 01:34:42;;;;;;;5.30;2.67;;;4.70;1.00;;;;;;5067656;28;20473;-56
2021/04/27 01:37:09;;;;;;;4.77;2.47;;;4.80;1.00;;;;;;5067648;28;20475;-57
2021/04/27 01:39:36;;;;;;;3.80;2.03;;;3.80;1.00;;;;;;5067278;28;20980;-57
2021/04/27 01:42:04;;;;;;;2.00;1.90;;;4.80;1.00;;;;;;5069740;28;20784;-58
2021/04/27 01:44:36;;;;;;;5.50;2.30;;;4.80;1.00;;;;;;5070208;28;20982;-57
2021/04/27 01:47:04;;;;;;;3.60;2.50;;;4.80;1.00;;;;;;5069229;28;20446;-57
2021/04/27 01:49:30;;;;;;;4.60;1.80;;;;;;;;;;5050899;28;20456;-56
2021/04/27 01:51:56;;;;;;;2.73;2.30;;;4.60;1.00;;;;;;5068634;28;20533;-56
2021/04/27 01:54:28;;;;;;;10.60;2.40;;;4.60;1.00;;;;;;5068428;28;20449;-58
2021/04/27 01:56:54;;;;;;;3.43;2.17;;;4.60;1.00;;;;;;5069740;28;20532;-58
2021/04/27 01:59:20;;;;;;;2.40;2.23;;;4.70;1.00;;;;;;5070350;28;20608;-55
2021/04/27 02:01:46;;;;;;;2.63;2.40;;;4.60;1.00;;;;;;5068878;28;20540;-55
2021/04/27 02:04:19;;;;;;;3.93;2.23;;;4.50;1.00;;;;;;5067026;28;20195;-57
2021/04/27 02:06:44;;;;;;;2.33;1.80;;;4.60;1.00;;;;;;5067423;28;20458;-56
2021/04/27 02:09:11;;;;;;;3.30;2.37;;;4.50;1.00;;;;;;5069358;28;20518;-57
2021/04/27 02:11:43;;;;;;;5.60;2.23;;;4.50;1.00;;;;;;5070556;28;20208;-56
2021/04/27 02:14:12;;;;;;;8.00;2.77;;;4.40;1.00;;;;;;5068768;28;20500;-56
2021/04/27 02:16:51;;;;;;;2.47;2.00;;;4.30;1.00;;;;;;5066896;28;20752;-57
2021/04/27 02:19:22;;;;;;;3.97;2.30;;;4.30;1.00;;;;;;5064483;28;20472;-57
2021/04/27 02:21:51;;;;;;;3.30;2.27;;;4.20;1.00;;;;;;5069221;28;20482;-56
2021/04/27 02:24:19;;;;;;;3.40;2.50;;;4.20;1.00;;;;;;5064816;28;20464;-56
2021/04/27 02:26:45;;;;;;;2.80;2.30;;;4.20;1.00;;;;;;5068154;28;20548;-57
2021/04/27 02:29:11;;;;;;;3.00;2.03;;;4.10;1.00;;;;;;5066598;28;20512;-57
2021/04/27 02:31:39;;;;;;;3.50;2.30;;;4.10;1.00;;;;;;5067216;28;20453;-55
2021/04/27 02:34:06;;;;;;;5.63;2.73;;;4.10;1.00;;;;;;5071603;28;20445;-55
2021/04/27 02:36:36;;;;;;;3.77;2.47;;;4.10;1.00;;;;;;5063193;28;20466;-56
2021/04/27 02:39:05;;;;;;;5.43;3.20;;;4.10;1.00;;;;;;5069463;28;20862;-56
2021/04/27 02:41:32;;;;;;;2.67;2.07;;;4.00;1.00;;;;;;5071877;28;20842;-55
2021/04/27 02:43:58;;;;;;;3.90;2.43;;;4.00;1.00;;;;;;5066150;28;20482;-55
2021/04/27 02:46:23;;;;;;;2.33;2.13;;;4.00;1.00;;;;;;5067945;28;20472;-56
2021/04/27 02:48:49;;;;;;;4.43;2.10;;;4.10;1.00;;;;;;5073630;28;20468;-56
2021/04/27 02:51:14;;;;;;;4.73;2.43;;;4.00;1.00;;;;;;5072321;28;20190;-56
2021/04/27 02:53:40;;;;;;;4.90;2.00;;;;;;;;;;5073816;28;20183;-57
2021/04/27 02:56:06;;;;;;;3.07;2.00;;;3.90;1.00;;;;;;5070585;28;20302;-56
2021/04/27 02:58:31;;;;;;;2.67;2.47;;;3.90;1.00;;;;;;5070071;28;20469;-55
2021/04/27 03:00:57;;;;;;;3.57;2.47;;;3.90;1.00;;;;;;5071190;28;20218;-57
2021/04/27 03:03:23;;;;;;;3.07;2.30;;;3.80;1.00;;;;;;5070101;28;20187;-56
2021/04/27 03:05:48;;;;;;;2.60;2.40;;;3.80;1.00;;;;;;5072693;28;20238;-56
2021/04/27 03:08:14;;;;;;;3.40;2.37;;;3.80;1.00;;;;;;5072340;28;20184;-55
2021/04/27 03:10:39;;;;;;;3.10;2.20;;;3.80;1.00;;;;;;5072967;28;20195;-56
2021/04/27 03:13:05;;;;;;;5.17;2.37;;;3.70;1.00;;;;;;5073488;28;20660;-56
2021/04/27 03:15:31;;;;;;;3.50;2.47;;;3.70;1.00;;;;;;5070679;28;20175;-55
2021/04/27 03:17:57;;;;;;;2.73;2.23;;;3.70;1.00;;;;;;5068902;28;20496;-56
2021/04/27 03:20:23;;;;;;;3.43;2.13;;;3.70;1.00;;;;;;5067685;28;20720;-56
2021/04/27 03:22:49;;;;;;;2.60;2.17;;;3.80;1.00;;;;;;5068137;28;20762;-56
2021/04/27 03:25:15;;;;;;;5.10;2.30;;;3.80;1.00;;;;;;5069904;28;20176;-56
2021/04/27 03:27:41;;;;;;;5.47;2.80;;;3.80;1.00;;;;;;5066677;28;20244;-57
2021/04/27 03:30:10;;;;;;;2.87;2.20;;;3.70;1.00;;;;;;5067762;28;20491;-57
2021/04/27 03:32:36;;;;;;;4.07;2.50;;;3.70;1.00;;;;;;5070814;28;20456;-55
2021/04/27 03:35:04;;;;;;;3.00;2.47;;;3.70;1.00;;;;;;5069795;28;20463;-56
2021/04/27 03:37:29;;;;;;;2.90;2.30;;;3.60;1.00;;;;;;5072022;28;21052;-57
2021/04/27 03:39:55;;;;;;;3.30;2.67;;;3.60;1.00;;;;;;5070050;28;20574;-56
2021/04/27 03:42:20;;;;;;;4.63;2.80;;;3.60;1.00;;;;;;5071166;28;20179;-56
2021/04/27 03:44:46;;;;;;;4.80;2.93;;;3.70;1.00;;;;;;5073064;28;20180;-57
2021/04/27 03:47:12;;;;;;;4.90;2.60;;;3.60;1.00;;;;;;5071494;28;20249;-56
2021/04/27 03:49:37;;;;;;;3.53;2.60;;;3.60;1.00;;;;;;5070099;28;20180;-55
2021/04/27 03:52:03;;;;;;;2.60;2.40;;;3.60;1.00;;;;;;5071032;28;20653;-56
2021/04/27 03:54:29;;;;;;;3.50;2.50;;;3.50;1.00;;;;;;5070076;28;20211;-56
2021/04/27 03:56:54;;;;;;;4.10;2.70;;;3.50;1.00;;;;;;5068727;28;20291;-57
2021/04/27 03:59:20;;;;;;;5.93;3.87;;;3.50;1.00;;;;;;5070253;28;20199;-57
2021/04/27 04:01:46;;;;;;;3.97;2.47;;;3.60;1.00;;;;;;5068744;28;20186;-55
2021/04/27 04:04:11;;;;;;;2.87;2.40;;;3.60;1.00;;;;;;5069311;28;20197;-56
2021/04/27 04:06:37;;;;;;;4.57;2.53;;;3.70;1.00;;;;;;5071787;28;20198;-56
2021/04/27 04:09:06;;;;;;;4.50;3.00;;;3.70;1.00;;;;;;5071659;28;20241;-57
2021/04/27 04:11:33;;;;;;;2.90;2.63;;;3.60;1.00;;;;;;5071089;28;20187;-57
2021/04/27 04:13:58;;;;;;;4.50;2.50;;;3.50;1.00;;;;;;5071951;28;20442;-58
2021/04/27 04:16:24;;;;;;;3.30;3.00;;;3.40;1.00;;;;;;5071459;28;20452;-58
2021/04/27 04:18:50;;;;;;;2.63;2.43;;;3.50;1.00;;;;;;5070598;28;20207;-56
2021/04/27 04:21:16;;;;;;;4.80;2.97;;;3.60;1.00;;;;;;5070142;28;20954;-55
2021/04/27 04:23:41;;;;;;;4.43;2.90;;;3.70;1.00;;;;;;5067875;28;20214;-58
2021/04/27 04:26:07;;;;;;;4.00;2.10;;;3.60;1.00;;;;;;5070058;28;20202;-56
2021/04/27 04:28:34;;;;;;;4.90;2.70;;;3.60;1.00;;;;;;5069384;28;20705;-56
2021/04/27 04:30:59;;;;;;;3.80;3.07;;;3.60;1.00;;;;;;5070325;28;20452;-54
2021/04/27 04:33:25;;;;;;;2.70;2.50;;;3.80;1.00;;;;;;5069987;28;20437;-56
2021/04/27 04:35:50;;;;;;;8.10;3.30;;;3.80;1.00;;;;;;5069794;28;20268;-56
2021/04/27 04:38:18;;;;;;;4.80;2.90;;;3.80;1.00;;;;;;5070057;28;20187;-55
2021/04/27 04:40:46;;;;;;;2.93;2.63;;;3.90;1.00;;;;;;5070691;28;20175;-56
2021/04/27 04:43:13;;;;;;;4.50;2.80;;;3.90;1.00;;;;;;5072078;28;20842;-57
2021/04/27 04:45:39;;;;;;;4.07;2.83;;;3.90;1.00;;;;;;5073274;28;20527;-58
2021/04/27 04:48:05;;;;;;;4.03;2.97;;;4.00;1.00;;;;;;5070480;28;20437;-57
2021/04/27 04:50:30;;;;;;;2.90;2.67;;;4.00;1.00;;;;;;5071120;28;20187;-57
2021/04/27 04:52:56;;;;;;;4.70;2.90;;;4.10;1.00;;;;;;5070927;28;20258;-57
2021/04/27 04:55:21;;;;;;;3.40;2.97;;;4.10;1.00;;;;;;5071187;28;20219;-57
2021/04/27 04:57:47;;;;;;;3.70;2.20;;;4.10;1.00;;;;;;5070093;28;20176;-58
2021/04/27 05:00:17;;;;;;;8.13;3.00;;;4.20;1.00;;;;;;5067996;28;20309;-56
2021/04/27 05:02:43;;;;;;;3.67;2.53;;;4.30;1.00;;;;;;5069683;28;20856;-58
2021/04/27 05:05:10;;;;;;;2.83;2.40;;;4.40;1.00;;;;;;5068463;28;20487;-58
2021/04/27 05:07:42;;;;;;;6.83;3.27;;;4.40;1.00;;;;;;5070014;28;20187;-58
2021/04/27 05:10:09;;;;;;;6.43;2.73;;;4.60;1.00;;;;;;5070745;28;20491;-57
2021/04/27 05:12:35;;;;;;;5.23;2.67;;;4.60;1.00;;;;;;5071311;28;20521;-56
2021/04/27 05:15:00;;;;;;;4.90;3.30;;;4.60;1.00;;;;;;5069322;28;20525;-59
2021/04/27 05:17:26;;;;;;;6.70;2.93;;;4.80;1.00;;;;;;5075863;28;20215;-58
2021/04/27 05:19:52;;;;;;;5.53;3.10;;;4.90;1.00;;;;;;5072112;28;20219;-57
2021/04/27 05:22:19;;;;;;;3.13;2.67;;;5.00;1.00;;;;;;5067373;28;20440;-58
2021/04/27 05:24:45;;;;;;;6.90;3.33;;;5.10;1.00;;;;;;5068809;28;20491;-57
2021/04/27 05:27:11;;;;;;;3.70;3.00;;;5.10;1.00;;;;;;5065364;28;20484;-57
2021/04/27 05:29:37;;;;;;;7.43;4.00;;;5.10;1.00;;;;;;5068165;28;20561;-58
2021/04/27 05:32:04;;;;;;;3.87;3.40;;;5.40;1.00;;;;;;5068449;28;20528;-57
2021/04/27 05:34:30;;;;;;;7.87;3.47;;;5.40;1.00;;;;;;5068192;28;20437;-57
2021/04/27 05:36:56;;;;;;;6.40;2.87;;;5.60;1.00;;;;;;5068045;28;20473;-57
2021/04/27 05:39:21;;;;;;;3.97;3.13;;;5.50;1.00;;;;;;5068855;28;20500;-57
2021/04/27 05:41:47;;;;;;;3.77;3.40;;;5.60;1.00;;;;;;5067692;28;20172;-58
2021/04/27 05:44:13;;;;;;;6.70;3.00;;;5.80;1.00;;;;;;5068657;28;20438;-57
2021/04/27 05:46:39;;;;;;;3.17;2.83;;;5.80;1.00;;;;;;5068876;28;20597;-57
2021/04/27 05:49:05;;;;;;;3.50;2.50;;;5.90;1.00;;;;;;5068783;28;20186;-57
2021/04/27 05:51:30;;;;;;;5.17;2.93;;;6.00;1.00;;;;;;5067358;28;20195;-57
2021/04/27 05:53:56;;;;;;;7.83;3.30;;;6.00;1.00;;;;;;5070277;28;20908;-57
2021/04/27 05:56:23;;;;;;;3.97;3.23;;;6.00;1.00;;;;;;5068322;28;20183;-57
2021/04/27 05:58:48;;;;;;;3.90;3.50;;;6.00;1.00;;;;;;5068652;28;20207;-58
2021/04/27 06:01:15;;;;;;;6.67;3.90;;;6.00;1.00;;;;;;5069465;28;20434;-58
2021/04/27 06:03:40;;;;;;;4.60;2.83;;;6.20;1.00;;;;;;5067067;28;20188;-57
2021/04/27 06:06:06;;;;;;;4.27;3.40;;;6.30;1.00;;;;;;5067057;28;20441;-57
2021/04/27 06:08:36;;;;;;;7.23;3.33;;;6.50;1.00;;;;;;5068256;28;20189;-58
2021/04/27 06:11:04;;;;;;;5.67;3.57;;;6.60;1.00;;;;;;5067944;28;20965;-58
2021/04/27 06:13:30;;;;;;;6.43;3.60;;;6.70;1.00;;;;;;5063042;28;20453;-58
2021/04/27 06:15:56;;;;;;;5.67;3.00;;;6.80;1.00;;;;;;5067453;28;20469;-58
2021/04/27 06:18:22;;;;;;;4.87;3.07;;;7.10;1.00;;;;;;5066978;28;20464;-58
2021/04/27 06:20:47;;;;;;;5.20;3.53;;;7.10;1.00;;;;;;5068473;28;20309;-57
2021/04/27 06:23:13;;;;;;;7.97;4.07;;;7.30;1.00;;;;;;5072013;28;20437;-57
2021/04/27 06:25:38;;;;;;;7.63;4.73;;;7.20;1.00;;;;;;5070863;28;20172;-57
2021/04/27 06:28:04;;;;;;;16.17;5.10;;;7.30;1.00;;;;;;5066105;28;20207;-58
2021/04/27 06:30:29;;;;;;;6.13;3.80;;;7.50;1.00;;;;;;5068369;28;20190;-58
2021/04/27 06:32:55;;;;;;;6.90;4.10;;;7.60;1.00;;;;;;5067744;28;20641;-57
2021/04/27 06:35:25;;;;;;;5.07;3.23;;;7.80;1.00;;;;;;5067433;28;20191;-57
2021/04/27 06:37:50;;;;;;;10.90;3.80;;;7.90;1.00;;;;;;5066685;28;20185;-58
2021/04/27 06:40:16;;;;;;;6.63;3.60;;;8.00;1.00;;;;;;5048598;28;20464;-57
2021/04/27 06:42:41;;;;;;;4.57;3.60;;;8.00;1.00;;;;;;5067948;28;20653;-57
2021/04/27 06:45:08;;;;;;;7.73;5.23;;;8.20;1.00;;;;;;5068000;28;20642;-57
2021/04/27 06:47:33;;;;;;;10.30;4.37;;;8.40;1.00;;;;;;5067843;28;20176;-58
2021/04/27 06:49:59;;;;;;;5.53;3.20;;;8.70;1.00;;;;;;5067476;28;20505;-58
2021/04/27 06:52:25;;;;;;;6.23;4.37;;;9.00;1.00;;;;;;5067513;28;20260;-57
2021/04/27 06:54:51;;;;;;;5.77;3.80;;;8.90;1.00;;;;;;5067364;28;20287;-57
2021/04/27 06:57:16;;;;;;;5.47;3.83;;;8.90;1.00;;;;;;5066797;28;20439;-57
2021/04/27 06:59:43;;;;;;;8.33;4.63;;;9.00;1.00;;;;;;5067330;28;20935;-57
2021/04/27 07:02:09;;;;;;;3.87;3.03;;;9.20;1.00;;;;;;5065050;28;20191;-58
2021/04/27 07:04:36;;;;;;;5.23;3.20;;;9.10;1.00;;;;;;5067284;28;20875;-58
2021/04/27 07:07:02;;;;;;;5.40;3.80;;;9.20;1.00;;;;;;5068552;28;20803;-58
2021/04/27 07:09:28;;;;;;;7.37;4.40;;;9.20;1.00;;;;;;5071990;28;20429;-58
2021/04/27 07:11:54;;;;;;;6.50;3.97;;;9.30;1.00;;;;;;5078504;28;20466;-58
2021/04/27 07:14:19;;;;;;;5.27;3.70;;;9.60;1.00;;;;;;5068328;28;20559;-57
2021/04/27 07:16:45;;;;;;;8.93;4.27;;;9.80;1.00;;;;;;5067775;28;20177;-57
2021/04/27 07:19:10;;;;;;;7.63;4.30;;;10.00;1.00;;;;;;5066666;28;20610;-58
2021/04/27 07:21:37;;;;;;;6.70;3.90;;;10.10;1.00;;;;;;5068147;28;20186;-57
2021/04/27 07:24:04;;;;;;;5.60;4.07;;;10.50;1.00;;;;;;5069395;28;20184;-57
2021/04/27 07:26:29;;;;;;;7.27;3.40;;;10.50;1.00;;;;;;5067762;28;20449;-58
2021/04/27 07:28:55;;;;;;;8.73;4.60;;;10.70;1.00;;;;;;5069163;28;20976;-58
2021/04/27 07:31:21;;;;;;;7.77;3.57;;;11.00;1.00;;;;;;5069327;28;20222;-57
2021/04/27 07:33:46;;;;;;;6.40;3.70;;;11.10;1.00;;;;;;5066613;28;20194;-57
2021/04/27 07:36:12;;;;;;;7.47;4.40;;;11.10;1.00;;;;;;5072004;28;20189;-58
2021/04/27 07:38:38;;;;;;;5.10;3.43;;;11.20;1.00;;;;;;5070384;28;20217;-57
2021/04/27 07:41:04;;;;;;;3.13;2.93;;;11.40;1.00;;;;;;5070549;28;20868;-58
2021/04/27 07:43:29;;;;;;;6.03;3.30;;;11.60;1.00;;;;;;5071171;28;20183;-57
2021/04/27 07:45:55;;;;;;;5.80;3.90;;;11.90;1.00;;;;;;5071585;28;20198;-57
2021/04/27 07:48:20;;;;;;;6.10;3.50;;;11.90;1.00;;;;;;5069794;28;20581;-58
2021/04/27 07:50:46;;;;;;;4.27;2.80;;;12.00;1.00;;;;;;5069379;28;20186;-60
2021/04/27 07:53:11;;;;;;;5.83;3.40;;;12.10;1.00;;;;;;5071090;28;20224;-59
2021/04/27 07:55:37;;;;;;;4.83;3.43;;;12.10;1.00;;;;;;5070705;28;20210;-59
2021/04/27 07:58:04;;;;;;;3.87;3.07;;;12.30;1.00;;;;;;5070376;28;20187;-59
2021/04/27 08:00:30;;;;;;;7.83;2.93;;;12.20;1.00;;;;;;5069397;28;20316;-59
2021/04/27 08:02:56;;;;;;;11.07;2.97;;;12.40;1.00;;;;;;5050586;28;20532;-59
2021/04/27 08:05:22;;;;;;;4.27;2.80;;;12.50;1.00;;;;;;5069069;28;20803;-58
2021/04/27 08:07:48;;;;;;;3.37;2.77;;;12.60;1.00;;;;;;5071814;28;20194;-58
2021/04/27 08:10:15;;;;;;;5.60;2.77;;;12.60;1.00;;;;;;5071174;28;20452;-56
2021/04/27 08:12:46;;;;;;;5.20;2.20;;;12.70;1.00;;;;;;5070286;28;20191;-56
2021/04/27 08:15:14;;;;;;;7.63;3.03;;;12.70;1.00;;;;;;5071332;28;20448;-57
2021/04/27 08:17:42;;;;;;;4.13;2.47;;;12.80;1.00;;;;;;5074991;28;20452;-58
2021/04/27 08:20:12;;;;;;;2.90;2.10;;;12.90;1.00;;;;;;5068938;28;21006;-57
2021/04/27 08:22:38;;;;;;;3.20;2.20;;;13.00;1.00;;;;;;5080436;28;20499;-56
2021/04/27 08:25:05;;;;;;;3.70;2.17;;;12.90;1.00;;;;;;5070656;28;20784;-57
2021/04/27 08:27:32;;;;;;;4.00;2.67;;;12.90;1.00;;;;;;5071395;28;20441;-57
2021/04/27 08:29:58;;;;;;;2.23;1.77;;;13.10;1.00;;;;;;5070048;28;20469;-57
2021/04/27 08:32:23;;;;;;;2.47;2.27;;;13.00;1.00;;;;;;5075978;28;20448;-56
2021/04/27 08:34:49;;;;;;;3.73;2.20;;;12.80;1.00;;;;;;5077845;28;20799;-56
2021/04/27 08:37:14;;;;;;;3.60;2.30;;;13.00;1.00;;;;;;5069858;28;20183;-56
2021/04/27 08:39:40;;;;;;;2.60;2.40;;;;;;;;;;5068967;28;20218;-56
2021/04/27 08:42:07;;;;;;;3.23;2.00;;;13.30;1.00;;;;;;5069936;28;20198;-56
2021/04/27 08:44:33;;;;;;;4.80;1.97;;;13.30;1.00;;;;;;5070059;28;20972;-56
2021/04/27 08:46:59;;;;;;;3.30;2.10;;;13.40;1.00;;;;;;5068666;28;20434;-58
2021/04/27 08:49:24;;;;;;;1.90;1.40;;;13.50;1.00;;;;;;5069591;28;20657;-56
2021/04/27 08:51:51;;;;;;;2.10;1.90;;;13.50;1.00;;;;;;5075007;28;20699;-57
2021/04/27 08:54:18;;;;;;;2.30;1.70;;;13.70;1.00;;;;;;5069903;28;20187;-57
2021/04/27 08:56:44;;;;;;;3.23;2.10;;;13.80;1.00;;;;;;5071259;28;20438;-57
2021/04/27 08:59:10;;;;;;;2.43;1.93;;;14.00;1.00;;;;;;5068708;28;20464;-56
2021/04/27 09:01:35;;;;;;;3.47;1.60;;;14.00;1.00;;;;;;5077217;28;20783;-56
2021/04/27 09:04:02;;;;;;;2.07;1.80;;;14.00;1.00;;;;;;5068878;28;20230;-57
2021/04/27 09:06:28;;;;;;;2.40;1.90;;;14.10;1.00;;;;;;5071344;28;20180;-57
2021/04/27 09:08:54;;;;;;;3.03;1.97;;;14.10;1.00;;;;;;5079543;28;20471;-57
2021/04/27 09:11:28;;;;;;;2.90;2.07;;;13.90;1.00;;;;;;5084355;28;20195;-56
2021/04/27 09:14:05;;;;;;;2.60;1.90;;;13.30;1.00;;;;;;5069633;28;20200;-56
2021/04/27 09:16:31;;;;;;;2.70;2.10;;;13.30;1.00;;;;;;5076332;28;20709;-56
2021/04/27 09:18:57;;;;;;;4.13;2.50;;;13.40;1.00;;;;;;5071718;28;20778;-56
2021/04/27 09:21:32;;;;;;;3.40;1.80;;;13.60;1.00;;;;;;5073574;28;20270;-56
2021/04/27 09:23:58;;;;;;;2.67;1.77;;;13.60;1.00;;;;;;5069933;28;20191;-56
2021/04/27 09:26:23;;;;;;;4.93;2.57;;;13.80;1.00;;;;;;5072295;28;20434;-57
2021/04/27 09:28:51;;;;;;;3.73;2.00;;;14.10;1.00;;;;;;5070598;28;20767;-57
2021/04/27 09:31:34;;;;;;;2.50;1.50;;;14.20;1.00;;;;;;5073032;28;20189;-58
2021/04/27 09:34:21;;;;;;;2.20;1.97;;;14.20;1.00;;;;;;5075089;28;20454;-57
2021/04/27 09:36:53;;;;;;;3.20;1.97;;;14.40;1.00;;;;;;5074152;28;20457;-57
2021/04/27 09:39:20;;;;;;;2.00;1.80;;;14.50;1.00;;;;;;5074206;28;20473;-57
2021/04/27 09:42:02;;;;;;;3.40;1.87;;;14.80;1.00;;;;;;5068557;28;20437;-57
2021/04/27 09:44:52;;;;;;;4.50;2.00;;;14.90;1.00;;;;;;5072735;28;20444;-57
2021/04/27 09:47:28;;;;;;;4.30;2.57;;;14.80;1.00;;;;;;5068927;28;20446;-57
2021/04/27 09:50:14;;;;;;;2.40;1.80;;;14.60;1.00;;;;;;5066544;28;20453;-57
2021/04/27 09:52:45;;;;;;;2.10;1.90;;;14.70;1.00;;;;;;5067437;28;20548;-57
2021/04/27 09:55:20;;;;;;;3.40;2.10;;;14.90;1.00;;;;;;5068327;28;21099;-57
2021/04/27 09:57:50;;;;;;;4.10;2.13;;;14.90;1.00;;;;;;5066726;28;20449;-58
2021/04/27 10:00:28;;;;;;;2.70;2.03;;;14.80;1.00;;;;;;5080297;28;20460;-56
2021/04/27 10:03:12;;;;;;;5.57;1.77;;;14.40;1.00;;;;;;5068816;28;20437;-56
2021/04/27 10:05:41;;;;;;;3.40;1.83;;;13.90;1.00;;;;;;5070248;28;20539;-57
2021/04/27 10:08:07;;;;;;;3.30;1.83;;;13.70;1.00;;;;;;5078354;28;20922;-57
2021/04/27 10:10:35;;;;;;;2.03;1.83;;;13.90;1.00;;;;;;5073958;28;20494;-57
2021/04/27 10:13:03;;;;;;;3.63;2.23;;;14.20;1.00;;;;;;5070442;28;20310;-57
2021/04/27 10:15:30;;;;;;;3.43;2.20;;;14.40;1.00;;;;;;5074325;28;20446;-57
2021/04/27 10:17:58;;;;;;;4.50;2.17;;;14.50;1.00;;;;;;5073384;28;21006;-57
2021/04/27 10:20:23;;;;;;;2.73;2.33;;;14.70;1.00;;;;;;5084317;28;20552;-58
2021/04/27 10:22:49;;;;;;;2.23;2.03;;;14.50;1.00;;;;;;5070495;28;21058;-57
2021/04/27 10:25:22;;;;;;;2.50;1.53;;;14.30;1.00;;;;;;5069157;28;20262;-57
2021/04/27 10:27:56;;;;;;;2.60;2.17;;;14.20;1.00;;;;;;5068545;28;20446;-57
2021/04/27 10:30:26;;;;;;;4.03;2.20;;;14.10;1.00;;;;;;5068193;28;20460;-57
2021/04/27 10:33:01;;;;;;;2.60;1.70;;;14.20;1.00;;;;;;5068093;28;20460;-57
2021/04/27 10:35:30;;;;;;;2.60;2.30;;;14.10;1.00;;;;;;5075798;28;20533;-57
2021/04/27 10:38:05;;;;;;;3.87;2.50;;;13.90;1.00;;;;;;5079839;28;20516;-57
2021/04/27 10:40:53;;;;;;;5.10;2.80;;;13.90;1.00;;;;;;5075522;28;20709;-57
2021/04/27 10:43:27;;;;;;;3.47;2.10;;;14.00;1.00;;;;;;5069473;28;20452;-57
2021/04/27 10:46:09;;;;;;;2.43;2.23;;;14.30;1.00;;;;;;5086799;28;20431;-58
2021/04/27 10:48:39;;;;;;;5.07;2.30;;;14.20;1.00;;;;;;5078441;28;20441;-57
2021/04/27 10:51:20;;;;;;;7.67;2.77;;;14.50;1.00;;;;;;5071089;28;20441;-57
2021/04/27 10:54:24;;;;;;;3.90;2.40;;;14.40;1.00;;;;;;5082099;28;20437;-57
2021/04/27 10:56:56;;;;;;;2.60;2.40;;;14.40;1.00;;;;;;5080489;28;20435;-57
2021/04/27 10:59:25;;;;;;;4.07;2.50;;;14.50;1.00;;;;;;5084544;28;20550;-57
2021/04/27 11:02:11;;;;;;;4.17;2.10;;;14.70;1.00;;;;;;5074696;28;20508;-57
2021/04/27 11:04:43;;;;;;;2.53;2.33;;;14.80;1.00;;;;;;5071645;28;20783;-57
2021/04/27 11:07:22;;;;;;;3.40;2.37;;;14.60;1.00;;;;;;5068577;28;20456;-57
2021/04/27 11:10:00;;;;;;;3.80;1.90;;;14.70;1.00;;;;;;5072756;28;20445;-57
2021/04/27 11:12:28;;;;;;;2.80;1.93;;;14.90;1.00;;;;;;5072217;28;20445;-57
2021/04/27 11:14:59;;;;;;;2.60;2.27;;;15.00;1.00;;;;;;5071556;28;20437;-57
2021/04/27 11:17:36;;;;;;;4.83;2.70;;;14.70;1.00;;;;;;5071778;28;20437;-59
2021/04/27 11:20:05;;;;;;;2.53;2.17;;;14.80;1.00;;;;;;5070676;28;20465;-58
2021/04/27 11:22:33;;;;;;;4.27;2.97;;;15.10;1.00;;;;;;5069481;28;20437;-57
2021/04/27 11:25:02;;;;;;;2.10;1.90;;;15.10;1.00;;;;;;5070411;28;20438;-58
2021/04/27 11:27:33;;;;;;;3.70;2.03;;;15.10;1.00;;;;;;5071400;28;20437;-57
2021/04/27 11:30:14;;;;;;;3.90;2.00;;;14.90;1.00;;;;;;5071292;28;20469;-57
2021/04/27 11:32:43;;;;;;;3.43;2.37;;;14.80;1.00;;;;;;5064705;28;20921;-58
2021/04/27 11:35:17;;;;;;;4.57;2.20;;;14.90;1.00;;;;;;5072053;28;20444;-57
2021/04/27 11:37:57;;;;;;;5.73;2.70;;;15.30;1.00;;;;;;5065680;28;21041;-57
2021/04/27 11:40:25;;;;;;;4.00;2.53;;;15.80;1.00;;;;;;5093248;28;20455;-58
2021/04/27 11:43:04;;;;;;;3.43;1.90;;;15.80;1.00;;;;;;5076397;28;20434;-58
2021/04/27 11:45:52;;;;;;;3.63;2.60;;;15.70;1.00;;;;;;5068437;28;20788;-57
2021/04/27 11:48:19;;;;;;;4.03;2.87;;;15.20;1.00;;;;;;5069245;28;20437;-57
2021/04/27 11:50:46;;;;;;;6.53;2.87;;;15.20;1.00;;;;;;5072363;28;20779;-57
2021/04/27 11:53:14;;;;;;;2.63;2.43;;;15.30;1.00;;;;;;5090535;28;20458;-56
2021/04/27 11:55:44;;;;;;;3.83;2.80;;;15.40;1.00;;;;;;5066867;28;20457;-57
2021/04/27 11:58:17;;;;;;;2.83;2.43;;;15.60;1.00;;;;;;5072603;28;20518;-56
2021/04/27 12:00:49;;;;;;;4.63;2.67;;;15.70;1.00;;;;;;5066750;28;20449;-57
2021/04/27 12:03:33;;;;;;;5.33;2.17;;;15.40;1.00;;;;;;5070786;28;20994;-57
2021/04/27 12:06:07;;;;;;;2.67;2.40;;;15.30;1.00;;;;;;5088676;28;20447;-57
2021/04/27 12:08:53;;;;;;;3.77;2.43;;;14.90;1.00;;;;;;5078175;28;20447;-56
2021/04/27 12:11:24;;;;;;;3.70;2.60;;;15.70;1.00;;;;;;5066973;28;21015;-56
2021/04/27 12:14:01;;;;;;;4.10;2.67;;;15.80;1.00;;;;;;5068528;28;20532;-58
2021/04/27 12:16:29;;;;;;;3.60;2.40;;;15.80;1.00;;;;;;5069377;28;20437;-56
2021/04/27 12:19:04;;;;;;;3.87;2.50;;;15.90;1.00;;;;;;5073284;28;20468;-57
2021/04/27 12:21:43;;;;;;;3.40;2.53;;;15.80;1.00;;;;;;5068101;28;20455;-57
2021/04/27 12:24:22;;;;;;;3.30;2.33;;;15.70;1.00;;;;;;5067669;28;20470;-57
2021/04/27 12:27:10;;;;;;;3.03;2.40;;;15.80;1.00;;;;;;5075084;28;20825;-58
2021/04/27 12:29:51;;;;;;;3.20;2.23;;;16.00;1.00;;;;;;5070036;28;20469;-58
2021/04/27 12:32:26;;;;;;;2.40;2.20;;;15.70;1.00;;;;;;5073860;28;20449;-57
2021/04/27 12:35:11;;;;;;;3.20;2.50;;;15.70;1.00;;;;;;5070401;28;20493;-57
2021/04/27 12:37:39;;;;;;;2.80;2.50;;;15.50;1.00;;;;;;5068093;28;20452;-57
2021/04/27 12:40:22;;;;;;;3.10;2.20;;;15.20;1.00;;;;;;5074484;28;20954;-57
2021/04/27 12:43:07;;;;;;;4.03;2.53;;;15.40;1.00;;;;;;5071349;28;20476;-57
2021/04/27 12:45:59;;;;;;;3.13;2.80;;;15.40;1.00;;;;;;5070202;28;20523;-58
2021/04/27 12:48:29;;;;;;;3.40;2.57;;;15.80;1.00;;;;;;5071565;28;20516;-58
2021/04/27 12:51:05;;;;;;;3.60;2.40;;;16.00;1.00;;;;;;5070642;28;20437;-58
2021/04/27 12:53:40;;;;;;;2.83;2.53;;;16.00;1.00;;;;;;5071103;28;20499;-58
2021/04/27 12:56:13;;;;;;;4.07;3.37;;;16.10;1.00;;;;;;5075038;28;20436;-57
2021/04/27 12:58:40;;;;;;;3.77;2.53;;;16.20;1.00;;;;;;5081929;28;20675;-58
2021/04/27 13:01:06;;;;;;;3.00;2.70;;;16.30;1.00;;;;;;5067871;28;20449;-57
2021/04/27 13:03:57;;;;;;;5.73;2.97;;;16.50;1.00;;;;;;5069849;28;20450;-57
2021/04/27 13:06:34;;;;;;;7.37;2.70;;;16.50;1.00;;;;;;5067675;28;21618;-57
2021/04/27 13:09:04;;;;;;;4.27;2.30;;;16.50;1.00;;;;;;5072636;28;20433;-57
2021/04/27 13:11:30;;;;;;;3.13;2.40;;;16.30;1.00;;;;;;5069326;28;20749;-57
2021/04/27 13:14:34;;;;;;;4.33;2.50;;;16.10;1.00;;;;;;5073364;28;20452;-56